Time;durP1;ratioP1;P1;durP2;ratioP2;P2;SDS_P1;SDS_P2;PMS_P1;PMS_P2;Temp;Humidity;BMP_temperature;BMP_pressure;BME280_temperature;BME280_humidity;BME280_pressure;Samples;Min_cycle;Max_cycle;Signal;HPM_P1;HPM_P2
2021/04/21 00:00:25;;;;;;;16.30;4.88;;;;;;;7.23;75.88;101370.44;6197544;28;20498;-71
2021/04/21 00:03:26;;;;;;;6.82;3.78;;;;;;;7.20;76.10;101373.16;6197157;28;20062;-72
2021/04/21 00:06:28;;;;;;;10.05;4.55;;;;;;;7.21;75.08;101371.38;6197190;28;20077;-72
2021/04/21 00:09:31;;;;;;;15.43;5.05;;;;;;;7.15;76.53;101375.03;6197065;28;20458;-71
2021/04/21 00:12:32;;;;;;;13.00;5.13;;;;;;;7.06;78.30;101377.91;6197019;28;20104;-72
2021/04/21 00:15:33;;;;;;;11.57;4.57;;;;;;;6.99;76.53;101365.91;6200694;28;20056;-71
2021/04/21 00:18:37;;;;;;;11.52;4.60;;;;;;;6.90;76.78;101374.00;6201563;28;20047;-71
2021/04/21 00:21:39;;;;;;;15.10;4.70;;;;;;;6.91;78.68;101370.53;6201763;28;20054;-71
2021/04/21 00:24:42;;;;;;;11.20;4.25;;;;;;;6.88;77.43;101365.38;6201253;28;20054;-72
2021/04/21 00:27:44;;;;;;;8.07;4.70;;;;;;;6.86;78.49;101368.03;6201327;28;20057;-72
2021/04/21 00:30:47;;;;;;;16.92;5.13;;;;;;;6.79;78.02;101366.50;6201262;28;20494;-71
2021/04/21 00:33:53;;;;;;;12.32;4.65;;;;;;;6.81;78.02;101372.50;6201180;28;20050;-72
2021/04/21 00:36:56;;;;;;;18.88;5.55;;;;;;;6.66;78.36;101375.56;6201047;28;20470;-72
2021/04/21 00:39:59;;;;;;;15.77;5.35;;;;;;;6.67;78.66;101374.66;6201207;28;20054;-72
2021/04/21 00:43:06;;;;;;;11.20;4.88;;;;;;;6.61;79.00;101367.84;6201092;28;20057;-71
2021/04/21 00:46:10;;;;;;;9.70;5.00;;;;;;;6.54;79.44;101367.16;6201145;28;20054;-72
2021/04/21 00:49:14;;;;;;;14.13;5.30;;;;;;;6.48;80.65;101369.06;6201148;28;20054;-71
2021/04/21 00:52:20;;;;;;;11.05;5.05;;;;;;;6.43;80.47;101365.72;6206145;28;20046;-71
2021/04/21 00:55:26;;;;;;;11.82;5.05;;;;;;;6.33;80.99;101363.34;6209343;28;20050;-71
2021/04/21 00:58:41;;;;;;;12.32;5.10;;;;;;;6.31;80.91;101362.53;6224606;28;20133;-72
2021/04/21 01:01:42;;;;;;;10.65;5.22;;;;;;;6.26;81.79;101358.31;6224219;28;20060;-71
2021/04/21 01:04:44;;;;;;;13.50;5.20;;;;;;;6.20;82.26;101354.13;6216328;28;20116;-72
2021/04/21 01:07:49;;;;;;;11.02;5.05;;;;;;;6.17;81.38;101355.94;6224858;28;20050;-71
2021/04/21 01:10:57;;;;;;;8.75;4.63;;;;;;;6.15;82.24;101355.13;6224679;28;20057;-72
2021/04/21 01:14:01;;;;;;;15.95;4.47;;;;;;;6.09;82.14;101356.16;6224587;28;20069;-72
2021/04/21 01:17:07;;;;;;;9.73;5.03;;;;;;;6.05;82.97;101355.38;6224404;28;20417;-72
2021/04/21 01:20:15;;;;;;;17.25;5.45;;;;;;;6.02;83.61;101357.19;6224766;28;20497;-71
2021/04/21 01:24:04;;;;;;;11.60;4.80;;;;;;;5.95;84.26;101359.09;6224100;28;20061;-71
2021/04/21 01:27:11;;;;;;;8.40;4.68;;;;;;;5.91;83.29;101360.03;6155278;28;20058;-72
2021/04/21 01:30:15;;;;;;;9.95;4.93;;;;;;;5.88;83.22;101361.84;6224552;28;20049;-72
2021/04/21 01:33:23;;;;;;;11.60;5.75;;;;;;;5.88;83.90;101361.84;6223882;28;20050;-72
2021/04/21 01:36:27;;;;;;;11.52;4.60;;;;;;;5.87;83.84;101363.63;6224269;28;20064;-71
2021/04/21 01:39:29;;;;;;;16.52;5.43;;;;;;;5.81;84.43;101358.53;6223979;28;20453;-71
2021/04/21 01:42:35;;;;;;;13.65;5.05;;;;;;;5.79;84.32;101355.97;6224171;28;20050;-72
2021/04/21 01:45:39;;;;;;;9.60;4.97;;;;;;;5.73;84.00;101352.66;6223900;28;20045;-72
2021/04/21 01:48:42;;;;;;;15.27;5.03;;;;;;;5.63;84.58;101357.19;6224084;28;20057;-72
2021/04/21 01:51:46;;;;;;;16.52;4.95;;;;;;;5.61;83.93;101353.78;6223945;28;20049;-72
2021/04/21 01:54:49;;;;;;;13.52;4.60;;;;;;;5.60;85.02;101352.06;6223352;28;20056;-71
2021/04/21 01:57:56;;;;;;;12.27;4.70;;;;;;;5.57;85.27;101347.78;6223551;28;20513;-71
2021/04/21 02:01:02;;;;;;;9.32;4.65;;;;;;;5.52;85.07;101348.78;6223706;28;20057;-72
2021/04/21 02:04:07;;;;;;;8.27;5.03;;;;;;;5.47;84.34;101346.28;6223419;28;20050;-72
2021/04/21 02:07:33;;;;;;;8.40;4.78;;;;;;;5.41;84.02;101341.22;6223418;28;20057;-71
2021/04/21 02:10:45;;;;;;;9.88;4.63;;;;;;;5.44;84.27;101341.13;6223521;28;20050;-72
2021/04/21 02:14:03;;;;;;;13.52;4.45;;;;;;;5.34;84.65;101348.28;6223235;28;20049;-71
2021/04/21 02:17:20;;;;;;;12.73;4.90;;;;;;;5.29;84.46;101342.34;6223253;28;20100;-71
2021/04/21 02:20:30;;;;;;;12.27;4.78;;;;;;;5.21;85.77;101353.81;6223309;28;20089;-72
2021/04/21 02:23:38;;;;;;;11.50;5.30;;;;;;;5.16;85.43;101348.69;6222752;28;20560;-72
2021/04/21 02:26:46;;;;;;;12.15;5.72;;;;;;;5.11;84.34;101339.28;6223117;28;20056;-71
2021/04/21 02:29:56;;;;;;;14.60;5.00;;;;;;;5.11;86.29;101357.50;6222889;28;20054;-71
2021/04/21 02:33:08;;;;;;;8.95;5.57;;;;;;;5.05;85.69;101358.50;6222834;28;20529;-71
2021/04/21 02:36:13;;;;;;;11.65;4.97;;;;;;;5.05;85.90;101354.13;6222665;28;20050;-71
2021/04/21 02:39:22;;;;;;;19.85;6.38;;;;;;;5.02;87.30;101353.34;6223171;28;20056;-71
2021/04/21 02:42:30;;;;;;;10.18;4.72;;;;;;;5.01;87.29;101357.69;6222768;28;20065;-71
2021/04/21 02:45:43;;;;;;;9.95;5.38;;;;;;;4.89;87.73;101354.47;6222563;28;20104;-72
2021/04/21 02:48:51;;;;;;;9.35;4.53;;;;;;;4.89;88.74;101351.88;6222793;28;20060;-71
2021/04/21 02:52:03;;;;;;;10.88;5.57;;;;;;;4.87;88.51;101358.88;6222703;28;20050;-71
2021/04/21 02:55:15;;;;;;;9.52;4.80;;;;;;;4.85;87.74;101356.28;6222144;28;20125;-71
2021/04/21 02:58:22;;;;;;;10.02;5.55;;;;;;;4.83;88.56;101360.66;6222565;28;20047;-72
2021/04/21 03:01:27;;;;;;;11.07;4.70;;;;;;;4.85;89.78;101361.47;6222317;28;20057;-72
2021/04/21 03:04:36;;;;;;;8.27;4.78;;;;;;;4.84;89.24;101360.63;6222227;28;20510;-71
2021/04/21 03:07:53;;;;;;;13.40;5.47;;;;;;;4.81;89.71;101357.22;6222401;28;20061;-71
2021/04/21 03:11:00;;;;;;;15.27;4.97;;;;;;;4.77;89.77;101358.19;6222309;28;20104;-71
2021/04/21 03:14:04;;;;;;;14.85;4.70;;;;;;;4.71;88.65;101355.69;6221963;28;20046;-73
2021/04/21 03:17:08;;;;;;;14.30;5.47;;;;;;;4.71;88.62;101353.09;6222105;28;20133;-71
2021/04/21 03:20:14;;;;;;;9.27;4.68;;;;;;;4.58;88.01;101358.53;6221954;28;20096;-71
2021/04/21 03:23:18;;;;;;;8.32;5.18;;;;;;;4.59;88.11;101349.00;6222096;28;20046;-71
2021/04/21 03:26:21;;;;;;;12.15;5.70;;;;;;;4.61;89.55;101346.34;6221749;28;20049;-71
2021/04/21 03:29:26;;;;;;;9.65;4.60;;;;;;;4.43;87.30;101348.41;6222240;28;20050;-71
2021/04/21 03:32:32;;;;;;;11.43;4.85;;;;;;;4.29;87.20;101346.06;6222229;28;20045;-71
2021/04/21 03:35:35;;;;;;;9.02;5.07;;;;;;;4.32;88.79;101348.59;6221726;28;20045;-72
2021/04/21 03:38:36;;;;;;;12.35;5.55;;;;;;;4.35;88.28;101339.03;6221911;28;20049;-72
2021/04/21 03:41:37;;;;;;;12.05;5.70;;;;;;;4.29;88.03;101346.06;6221713;28;20572;-71
2021/04/21 03:44:40;;;;;;;9.25;5.15;;;;;;;4.31;89.22;101343.41;6221594;28;20050;-71
2021/04/21 03:47:42;;;;;;;9.93;5.03;;;;;;;4.37;89.32;101339.88;6221883;28;20050;-71
2021/04/21 03:50:45;;;;;;;17.88;5.90;;;;;;;4.29;88.78;101342.59;6225912;28;20056;-71
2021/04/21 03:53:49;;;;;;;14.70;6.28;;;;;;;4.27;88.13;101332.22;6226434;28;20046;-72
2021/04/21 03:56:50;;;;;;;12.93;6.03;;;;;;;4.30;88.93;101329.56;6226465;28;20049;-71
2021/04/21 03:59:53;;;;;;;12.25;6.70;;;;;;;4.27;89.35;101328.75;6217516;28;20054;-71
2021/04/21 04:02:57;;;;;;;14.20;7.22;;;;;;;4.24;90.02;101327.06;6211496;28;20045;-71
2021/04/21 04:06:05;;;;;;;16.45;6.63;;;;;;;4.25;90.24;101336.59;6211982;28;20050;-71
2021/04/21 04:09:08;;;;;;;13.70;6.47;;;;;;;4.13;88.98;101335.94;6221988;28;20069;-72
2021/04/21 04:12:11;;;;;;;11.07;6.35;;;;;;;4.14;90.39;101340.28;6213632;28;20419;-71
2021/04/21 04:15:14;;;;;;;12.23;6.90;;;;;;;4.15;89.87;101342.84;6211043;28;20384;-71
2021/04/21 04:18:15;;;;;;;12.77;6.57;;;;;;;4.22;88.80;101338.38;6212940;28;20046;-71
2021/04/21 04:21:19;;;;;;;19.35;7.15;;;;;;;4.21;89.51;101340.13;6213668;28;20050;-71
2021/04/21 04:24:22;;;;;;;11.50;6.72;;;;;;;4.13;89.87;101335.94;6211704;28;20046;-72
2021/04/21 04:27:24;;;;;;;21.20;6.97;;;;;;;4.16;89.32;101344.53;6209181;28;20051;-72
2021/04/21 04:30:26;;;;;;;19.02;7.60;;;;;;;4.14;90.26;101348.94;6201433;28;20046;-71
2021/04/21 04:33:28;;;;;;;11.98;6.60;;;;;;;4.14;90.32;101351.53;6201204;28;20057;-71
2021/04/21 04:36:32;;;;;;;29.00;8.05;;;;;;;4.20;90.74;101354.03;6201149;28;20042;-71
2021/04/21 04:39:33;;;;;;;16.27;8.15;;;;;;;4.20;89.98;101351.41;6201304;28;20495;-71
2021/04/21 04:42:36;;;;;;;16.50;7.45;;;;;;;4.16;90.37;101356.69;6201218;28;20050;-71
2021/04/21 04:45:40;;;;;;;13.60;7.55;;;;;;;4.13;90.95;101364.53;6200656;28;20518;-71
2021/04/21 04:48:45;;;;;;;17.52;6.72;;;;;;;4.09;90.00;101350.75;6201018;28;20058;-71
2021/04/21 04:51:47;;;;;;;14.20;7.60;;;;;;;4.07;90.84;101357.72;6200933;28;20057;-71
2021/04/21 04:54:49;;;;;;;23.63;6.80;;;;;;;4.04;90.89;101357.75;6200575;28;20403;-71
2021/04/21 04:57:52;;;;;;;14.65;7.85;;;;;;;4.05;89.96;101362.09;6200808;28;20136;-71
2021/04/21 05:00:58;;;;;;;17.33;6.88;;;;;;;4.12;89.81;101363.69;6199404;28;20409;-71
2021/04/21 05:03:59;;;;;;;19.98;8.77;;;;;;;4.27;88.55;101362.56;6200306;28;20050;-71
2021/04/21 05:07:05;;;;;;;16.58;7.40;;;;;;;4.30;89.04;101365.13;6200799;28;20498;-71
2021/04/21 05:10:13;;;;;;;13.43;7.18;;;;;;;4.28;88.95;101364.31;6200582;28;20064;-71
2021/04/21 05:13:20;;;;;;;15.65;7.45;;;;;;;4.21;89.46;101365.28;6200365;28;20058;-71
2021/04/21 05:16:59;;;;;;;20.52;9.25;;;;;;;4.23;90.30;101374.78;6200306;28;20066;-71
2021/04/21 05:20:48;;;;;;;14.32;7.65;;;;;;;4.28;89.98;101372.97;6200321;28;20061;-71
2021/04/21 05:24:28;;;;;;;31.25;8.68;;;;;;;4.30;89.69;101370.31;6200292;28;20093;-71
2021/04/21 05:28:03;;;;;;;14.15;7.20;;;;;;;4.42;90.31;101374.47;6250243;23;20048;-71
2021/04/21 05:31:16;;;;;;;13.85;7.65;;;;;;;4.54;88.82;101366.41;6273774;28;20052;-71
2021/04/21 05:34:59;;;;;;;16.90;8.20;;;;;;;4.71;88.26;101379.97;6273245;28;20052;-72
2021/04/21 05:38:41;;;;;;;12.55;7.45;;;;;;;4.84;88.06;101378.00;6252935;28;20049;-71
2021/04/21 05:42:26;;;;;;;18.42;8.50;;;;;;;4.96;87.20;101364.75;6248468;28;20452;-72
2021/04/21 05:45:54;;;;;;;18.45;9.32;;;;;;;5.06;87.81;101375.84;6248571;28;20050;-72
2021/04/21 05:49:47;;;;;;;15.02;8.82;;;;;;;5.16;86.54;101371.28;6248446;28;20053;-73
2021/04/21 05:53:29;;;;;;;22.30;10.68;;;;;;;5.20;85.10;101375.56;6248114;28;20049;-72
2021/04/21 05:56:59;;;;;;;22.30;8.57;;;;;;;5.33;84.33;101370.03;6248281;28;20042;-71
2021/04/21 06:00:19;;;;;;;21.42;8.68;;;;;;;5.44;82.66;101368.94;6247841;28;20057;-72
2021/04/21 06:03:22;;;;;;;17.88;9.07;;;;;;;5.57;82.95;101375.59;6247759;28;20056;-72
2021/04/21 06:06:23;;;;;;;14.65;8.73;;;;;;;5.66;81.81;101372.78;6248188;28;20061;-72
2021/04/21 06:09:26;;;;;;;19.73;9.50;;;;;;;5.75;81.88;101374.31;6247848;28;20524;-71
2021/04/21 06:12:27;;;;;;;19.92;8.75;;;;;;;5.87;81.24;101376.66;6247439;28;20425;-72
2021/04/21 06:15:30;;;;;;;14.90;8.68;;;;;;;5.81;81.46;101367.22;6247578;28;20092;-71
2021/04/21 06:18:31;;;;;;;18.67;8.55;;;;;;;5.84;81.36;101368.88;6247405;28;20091;-71
2021/04/21 06:21:34;;;;;;;16.13;9.45;;;;;;;5.95;79.92;101372.16;6247782;28;20049;-71
2021/04/21 06:24:35;;;;;;;15.15;8.55;;;;;;;6.08;80.04;101372.69;6247221;28;20052;-71
2021/04/21 06:27:36;;;;;;;15.20;7.80;;;;;;;6.19;80.57;101381.13;6247298;28;20545;-71
2021/04/21 06:30:37;;;;;;;14.88;8.93;;;;;;;6.20;80.95;101380.22;6247296;28;20415;-71
2021/04/21 06:33:40;;;;;;;20.17;8.95;;;;;;;6.23;81.76;101379.28;6247173;28;20494;-71
2021/04/21 06:36:43;;;;;;;18.13;8.15;;;;;;;6.35;79.77;101382.44;6247244;28;20057;-71
2021/04/21 06:39:44;;;;;;;15.98;7.93;;;;;;;6.53;78.93;101382.84;6247406;28;20072;-71
2021/04/21 06:42:46;;;;;;;17.33;7.32;;;;;;;6.65;79.61;101385.16;6247170;28;20045;-71
2021/04/21 06:45:50;;;;;;;13.00;7.32;;;;;;;6.74;78.50;101392.72;6247014;28;20053;-71
2021/04/21 06:48:54;;;;;;;12.77;7.18;;;;;;;6.84;78.05;101380.28;6247189;28;20049;-71
2021/04/21 06:51:55;;;;;;;22.20;9.68;;;;;;;6.99;77.69;101385.06;6246444;28;20046;-71
2021/04/21 06:55:02;;;;;;;16.38;7.55;;;;;;;7.12;76.41;101386.44;6246504;28;20049;-71
2021/04/21 06:58:16;;;;;;;13.90;7.63;;;;;;;7.29;74.45;101388.56;6225945;28;20060;-71
2021/04/21 07:01:24;;;;;;;12.18;7.25;;;;;;;7.47;74.97;101388.91;6222273;28;20049;-71
2021/04/21 07:04:25;;;;;;;18.02;8.55;;;;;;;7.59;75.32;101384.19;6222095;28;20050;-71
2021/04/21 07:07:27;;;;;;;16.08;7.70;;;;;;;7.78;74.72;101389.69;6236764;28;20553;-71
2021/04/21 07:10:28;;;;;;;18.10;7.05;;;;;;;7.97;74.84;101394.34;6238462;28;20058;-71
2021/04/21 07:13:31;;;;;;;15.85;6.82;;;;;;;8.21;73.86;101393.53;6246393;28;22008;-71
2021/04/21 07:16:32;;;;;;;14.57;7.30;;;;;;;8.29;74.80;101396.75;6246572;28;20052;-71
2021/04/21 07:19:36;;;;;;;13.05;7.18;;;;;;;8.36;74.63;101397.41;6246424;28;20081;-71
2021/04/21 07:22:37;;;;;;;17.35;8.10;;;;;;;8.44;74.69;101387.53;6246222;28;20413;-71
2021/04/21 07:25:39;;;;;;;16.00;8.20;;;;;;;8.68;74.17;101385.00;6245565;28;20107;-70
2021/04/21 07:28:40;;;;;;;21.85;8.50;;;;;;;8.89;73.42;101386.84;6246591;28;20057;-71
2021/04/21 07:31:41;;;;;;;23.63;8.15;;;;;;;8.96;74.49;101385.72;6246316;28;20056;-71
2021/04/21 07:34:43;;;;;;;16.95;8.95;;;;;;;8.99;73.42;101388.22;6246364;28;20099;-73
2021/04/21 07:37:44;;;;;;;17.67;8.55;;;;;;;9.10;74.32;101387.84;6246247;28;20057;-71
2021/04/21 07:40:50;;;;;;;17.15;8.57;;;;;;;9.34;72.98;101402.66;6246487;28;20049;-71
2021/04/21 07:43:51;;;;;;;18.63;6.90;;;;;;;9.54;72.93;101398.44;6246210;28;20053;-70
2021/04/21 07:46:53;;;;;;;13.70;6.57;;;;;;;9.64;68.95;101394.53;6246350;28;20095;-72
2021/04/21 07:49:56;;;;;;;18.48;6.60;;;;;;;9.83;66.38;101400.75;6246191;28;20103;-71
2021/04/21 07:53:01;;;;;;;12.65;5.95;;;;;;;10.19;65.34;101404.59;6233530;28;20048;-70
2021/04/21 07:56:04;;;;;;;12.23;6.20;;;;;;;10.38;61.06;101403.78;6232885;28;20053;-71
2021/04/21 07:59:13;;;;;;;25.95;6.00;;;;;;;10.58;56.94;101408.22;6239284;28;20054;-71
2021/04/21 08:02:18;;;;;;;15.10;5.32;;;;;;;10.45;55.89;101409.66;6237773;28;20046;-71
2021/04/21 08:05:20;;;;;;;11.82;5.88;;;;;;;10.27;57.24;101415.69;6241240;28;20097;-71
2021/04/21 08:08:27;;;;;;;26.48;5.90;;;;;;;10.65;54.24;101414.06;6234669;28;20041;-71
2021/04/21 08:11:28;;;;;;;15.15;6.60;;;;;;;11.03;53.03;101408.88;6245791;28;20080;-70
2021/04/21 08:14:44;;;;;;;11.38;7.13;;;;;;;10.83;53.95;101413.25;6237317;28;20042;-71
2021/04/21 08:17:54;;;;;;;14.52;7.15;;;;;;;10.80;54.12;101420.41;6221105;28;20061;-71
2021/04/21 08:20:57;;;;;;;12.73;7.35;;;;;;;10.75;55.26;101419.75;6221349;28;20049;-70
2021/04/21 08:23:59;;;;;;;10.73;5.57;;;;;;;11.01;52.46;101416.84;6220943;28;20430;-71
2021/04/21 08:27:00;;;;;;;13.15;6.30;;;;;;;10.86;54.61;101421.03;6243161;28;20072;-70
2021/04/21 08:30:01;;;;;;;13.38;6.63;;;;;;;10.99;54.43;101420.47;6245699;28;20046;-70
2021/04/21 08:33:03;;;;;;;14.73;5.65;;;;;;;11.15;53.95;101422.34;6227356;28;20050;-71
2021/04/21 08:36:05;;;;;;;14.60;4.82;;;;;;;11.32;49.76;101421.59;6223868;28;20074;-70
2021/04/21 08:39:06;;;;;;;12.75;5.50;;;;;;;11.38;50.43;101425.72;6225716;28;20049;-70
2021/04/21 08:42:09;;;;;;;11.60;4.90;;;;;;;11.25;49.97;101420.16;6225501;28;20046;-71
2021/04/21 08:45:11;;;;;;;13.15;5.65;;;;;;;11.36;49.65;101423.16;6237313;28;20041;-69
2021/04/21 08:48:13;;;;;;;12.73;5.10;;;;;;;11.64;50.29;101432.41;6245033;28;20049;-71
2021/04/21 08:51:18;;;;;;;18.33;4.97;;;;;;;11.80;50.49;101424.63;6241361;28;20057;-70
2021/04/21 08:54:22;;;;;;;8.75;4.53;;;;;;;11.63;49.70;101431.56;6241030;28;20080;-71
2021/04/21 08:57:23;;;;;;;9.75;4.68;;;;;;;11.78;47.94;101418.59;6249505;28;20561;-70
2021/04/21 09:00:24;;;;;;;12.07;4.95;;;;;;;11.47;48.35;101425.28;6241855;28;20052;-71
2021/04/21 09:03:25;;;;;;;9.20;4.68;;;;;;;11.68;48.19;101416.41;6248367;28;20133;-71
2021/04/21 09:06:27;;;;;;;13.48;4.97;;;;;;;11.79;47.95;101426.41;6249624;28;20548;-70
2021/04/21 09:09:29;;;;;;;11.73;3.78;;;;;;;12.00;42.43;101423.72;6250114;28;20525;-71
2021/04/21 09:12:31;;;;;;;12.20;5.43;;;;;;;12.05;44.88;101427.00;6231808;28;20068;-71
2021/04/21 09:15:31;;;;;;;10.55;4.03;;;;;;;11.83;46.18;101425.38;6237623;28;20049;-71
2021/04/21 09:18:35;;;;;;;10.80;3.70;;;;;;;12.01;42.77;101426.28;6249388;28;20111;-70
2021/04/21 09:21:38;;;;;;;8.63;4.03;;;;;;;12.01;42.41;101425.44;6249292;28;20053;-71
2021/04/21 09:24:40;;;;;;;8.18;4.00;;;;;;;12.22;42.56;101423.50;6248094;28;20054;-71
2021/04/21 09:27:41;;;;;;;9.43;3.85;;;;;;;12.09;44.17;101429.41;6248491;28;20399;-72
2021/04/21 09:30:45;;;;;;;8.65;4.00;;;;;;;12.43;42.00;101420.66;6245962;28;20050;-72
2021/04/21 09:33:47;;;;;;;10.82;4.25;;;;;;;12.65;42.80;101432.78;6247847;28;20048;-71
2021/04/21 09:36:49;;;;;;;11.30;3.72;;;;;;;12.46;44.43;101418.81;6247949;28;20053;-70
2021/04/21 09:39:50;;;;;;;11.13;4.55;;;;;;;12.31;46.01;101423.06;6248677;28;20107;-71
2021/04/21 09:42:54;;;;;;;17.15;4.32;;;;;;;12.77;42.49;101418.13;6247580;28;20398;-70
2021/04/21 09:45:57;;;;;;;8.27;3.75;;;;;;;12.65;44.26;101414.31;6247274;28;20528;-71
2021/04/21 09:48:58;;;;;;;13.43;4.18;;;;;;;13.05;41.75;101415.72;6248055;28;20056;-71
2021/04/21 09:52:03;;;;;;;10.57;4.68;;;;;;;13.03;42.75;101417.56;6248046;28;20057;-71
2021/04/21 09:55:14;;;;;;;17.95;4.47;;;;;;;13.08;41.67;101412.06;6247308;28;20053;-73
2021/04/21 09:58:27;;;;;;;10.73;4.85;;;;;;;13.09;43.99;101413.78;6245323;28;20050;-70
2021/04/21 10:01:30;;;;;;;9.57;4.28;;;;;;;13.31;42.52;101426.72;6223212;28;20506;-71
2021/04/21 10:04:31;;;;;;;10.75;4.53;;;;;;;13.16;43.16;101418.63;6222929;28;20073;-73
2021/04/21 10:07:33;;;;;;;19.80;9.20;;;;;;;13.03;44.44;101409.66;6221650;28;20132;-71
2021/04/21 10:10:34;;;;;;;11.70;5.13;;;;;;;13.19;42.96;101410.56;6223137;28;20062;-70
2021/04/21 10:13:43;;;;;;;12.32;5.07;;;;;;;13.20;42.67;101411.41;6221911;28;20054;-70
2021/04/21 10:16:44;;;;;;;14.25;4.78;;;;;;;13.17;43.63;101408.94;6222217;28;20056;-72
2021/04/21 10:19:45;;;;;;;10.13;4.75;;;;;;;13.44;42.74;101415.41;6220869;28;20046;-73
2021/04/21 10:22:47;;;;;;;14.02;4.57;;;;;;;13.49;41.74;101409.00;6221433;28;20109;-72
2021/04/21 10:25:49;;;;;;;21.35;5.18;;;;;;;13.43;42.35;101413.69;6222619;28;20568;-72
2021/04/21 10:28:50;;;;;;;15.40;4.32;;;;;;;13.41;43.16;101409.44;6222798;28;20057;-72
2021/04/21 10:31:52;;;;;;;14.30;5.60;;;;;;;13.43;43.74;101408.41;6222690;28;20058;-71
2021/04/21 10:34:53;;;;;;;11.75;5.82;;;;;;;13.44;44.63;101407.50;6245057;28;20414;-73
2021/04/21 10:37:56;;;;;;;10.88;4.85;;;;;;;13.50;43.14;101403.66;6247163;28;20100;-72
2021/04/21 10:41:26;;;;;;;14.82;6.25;;;;;;;13.59;44.76;101404.94;6246948;28;20053;-71
2021/04/21 10:44:31;;;;;;;16.60;6.35;;;;;;;13.68;43.92;101401.78;6237540;28;20452;-71
2021/04/21 10:47:44;;;;;;;12.18;7.65;;;;;;;13.78;47.15;101402.97;6247130;28;20544;-71
2021/04/21 10:50:45;;;;;;;13.90;7.18;;;;;;;13.90;45.77;101412.00;6247177;28;20053;-72
2021/04/21 10:53:48;;;;;;;14.93;8.27;;;;;;;13.81;47.38;101410.75;6245891;28;20091;-71
2021/04/21 10:56:49;;;;;;;16.92;10.32;;;;;;;13.93;49.16;101415.31;6246922;28;20050;-72
2021/04/21 11:00:05;;;;;;;23.08;10.57;;;;;;;14.06;49.45;101418.09;6245506;28;20520;-72
2021/04/21 11:03:08;;;;;;;23.33;12.13;;;;;;;14.08;49.87;101421.53;6245966;28;20059;-72
2021/04/21 11:06:10;;;;;;;19.20;11.88;;;;;;;14.13;52.00;101429.19;6246558;28;20060;-71
2021/04/21 11:09:13;;;;;;;25.95;13.20;;;;;;;13.91;52.97;101419.84;6246798;28;20045;-71
2021/04/21 11:12:50;;;;;;;27.08;12.05;;;;;;;14.05;53.79;101429.63;6246410;28;20049;-73
2021/04/21 11:15:54;;;;;;;19.95;11.52;;;;;;;14.34;50.33;101421.81;6244113;28;20042;-72
2021/04/21 11:19:27;;;;;;;22.92;11.52;;;;;;;14.40;48.92;101426.75;6245413;28;20061;-71
2021/04/21 11:22:30;;;;;;;26.48;11.93;;;;;;;14.27;49.97;101426.59;6246541;28;20049;-72
2021/04/21 11:25:31;;;;;;;22.08;11.07;;;;;;;14.46;48.16;101429.03;6246100;28;20041;-72
2021/04/21 11:28:57;;;;;;;24.23;10.75;;;;;;;14.37;48.08;101426.91;6286346;23;20049;-72
2021/04/21 11:32:11;;;;;;;19.27;10.63;;;;;;;14.52;49.29;101426.03;6256326;28;20144;-72
2021/04/21 11:35:28;;;;;;;24.73;10.75;;;;;;;15.01;47.53;101431.03;6249175;28;20041;-72
2021/04/21 11:38:41;;;;;;;24.08;11.20;;;;;;;15.05;50.07;101427.28;6231886;28;20050;-72
2021/04/21 11:41:46;;;;;;;23.42;11.23;;;;;;;15.15;46.44;101436.34;6221301;28;20483;-72
2021/04/21 11:45:00;;;;;;;21.35;10.50;;;;;;;15.14;46.88;101431.16;6220677;28;20053;-73
2021/04/21 11:48:19;;;;;;;20.85;12.57;;;;;;;14.97;49.11;101435.66;6220767;28;20061;-72
2021/04/21 11:51:20;;;;;;;26.75;13.25;;;;;;;14.83;50.79;101426.88;6221366;28;20060;-71
2021/04/21 11:54:21;;;;;;;27.20;11.68;;;;;;;14.58;48.72;101431.00;6220966;28;20041;-72
2021/04/21 11:57:23;;;;;;;25.05;10.93;;;;;;;14.18;50.68;101422.69;6221191;28;20132;-72
2021/04/21 12:00:26;;;;;;;23.58;13.63;;;;;;;14.91;52.25;101428.13;6237289;28;20493;-71
2021/04/21 12:03:29;;;;;;;25.30;13.35;;;;;;;15.15;51.63;101433.69;6245172;28;20049;-71
2021/04/21 12:06:30;;;;;;;28.20;15.05;;;;;;;14.84;54.69;101439.16;6245730;28;20689;-71
2021/04/21 12:09:35;;;;;;;30.13;15.80;;;;;;;14.65;55.55;101437.59;6246680;28;20064;-70
2021/04/21 12:12:37;;;;;;;37.47;16.65;;;;;;;14.65;55.12;101432.31;6250198;28;20052;-71
2021/04/21 12:15:38;;;;;;;32.85;16.55;;;;;;;14.28;56.83;101427.47;6249497;28;20053;-70
2021/04/21 12:18:41;;;;;;;27.80;14.63;;;;;;;14.38;56.60;101431.25;6250085;28;20098;-70
2021/04/21 12:21:44;;;;;;;23.25;12.20;;;;;;;14.20;57.03;101435.81;6250533;28;20497;-72
2021/04/21 12:24:45;;;;;;;21.80;11.45;;;;;;;14.53;56.86;101434.81;6249195;28;20068;-71
2021/04/21 12:27:49;;;;;;;22.52;11.73;;;;;;;14.64;57.49;101438.56;6249715;28;20468;-70
2021/04/21 12:30:55;;;;;;;23.80;11.43;;;;;;;14.88;56.24;101441.53;6250103;28;20429;-71
2021/04/21 12:33:58;;;;;;;26.77;12.23;;;;;;;14.89;57.79;101445.00;6234050;28;20046;-71
2021/04/21 12:36:59;;;;;;;24.85;12.13;;;;;;;15.01;57.13;101446.94;6229912;28;20400;-71
2021/04/21 12:40:00;;;;;;;17.45;10.27;;;;;;;14.46;59.04;101455.47;6250020;28;20056;-71
2021/04/21 12:43:11;;;;;;;27.45;10.68;;;;;;;15.04;57.69;101451.19;6249014;28;20056;-71
2021/04/21 12:46:18;;;;;;;20.67;10.00;;;;;;;14.96;58.20;101468.38;6249760;28;20063;-71
2021/04/21 12:49:32;;;;;;;21.00;9.70;;;;;;;14.66;59.68;101462.25;6249607;28;20053;-70
2021/04/21 12:52:32;;;;;;;20.95;9.57;;;;;;;14.23;56.47;101455.97;6247980;28;20184;-70
2021/04/21 12:55:33;;;;;;;13.00;8.40;;;;;;;13.88;58.70;101456.16;6248188;28;20049;-70
2021/04/21 12:58:38;;;;;;;17.42;8.20;;;;;;;13.81;59.41;101463.56;6240280;28;20053;-70
2021/04/21 13:01:38;;;;;;;13.50;6.70;;;;;;;13.80;57.66;101458.34;6225028;28;20050;-70
2021/04/21 13:04:40;;;;;;;21.05;7.90;;;;;;;13.40;57.72;101450.84;6223938;28;20410;-70
2021/04/21 13:07:42;;;;;;;12.65;5.85;;;;;;;13.49;57.80;101459.19;6224692;28;20061;-70
2021/04/21 13:10:43;;;;;;;14.23;5.50;;;;;;;13.64;56.09;101453.06;6225422;28;20046;-70
2021/04/21 13:13:48;;;;;;;11.73;5.10;;;;;;;13.30;55.41;101454.03;6246561;28;20046;-69
2021/04/21 13:16:52;;;;;;;17.65;4.47;;;;;;;13.50;56.01;101459.13;6224658;28;20050;-70
2021/04/21 13:19:55;;;;;;;13.10;4.85;;;;;;;14.28;53.63;101459.19;6224416;28;20053;-70
2021/04/21 13:23:09;;;;;;;16.40;5.45;;;;;;;14.38;53.63;101458.56;6222745;28;20505;-70
2021/04/21 13:26:15;;;;;;;7.97;3.63;;;;;;;14.23;50.99;101451.53;6243181;28;20068;-69
2021/04/21 13:29:30;;;;;;;7.55;2.88;;;;;;;14.30;53.98;101442.28;6248988;28;20057;-70
2021/04/21 13:32:31;;;;;;;10.60;2.72;;;;;;;14.68;49.71;101450.66;6243627;28;20053;-70
2021/04/21 13:35:32;;;;;;;7.63;2.83;;;;;;;14.72;48.13;101451.34;6233761;28;20049;-69
2021/04/21 13:38:33;;;;;;;9.63;2.33;;;;;;;14.76;47.66;101450.22;6247205;28;20072;-70
2021/04/21 13:41:33;;;;;;;6.68;2.40;;;;;;;14.62;48.09;101458.94;6247371;28;20053;-70
2021/04/21 13:44:35;;;;;;;8.27;1.90;;;;;;;15.01;46.60;101462.81;6239800;28;20046;-70
2021/04/21 13:47:37;;;;;;;10.65;2.03;;;;;;;14.68;48.63;101463.03;6248605;28;20054;-70
2021/04/21 13:50:38;;;;;;;7.25;1.50;;;;;;;14.29;47.18;101459.09;6228163;28;20054;-70
2021/04/21 13:53:39;;;;;;;6.97;1.90;;;;;;;14.12;46.63;101467.13;6239561;28;20054;-69
2021/04/21 13:56:40;;;;;;;6.82;1.70;;;;;;;13.66;48.23;101464.41;6243735;28;20399;-70
2021/04/21 13:59:42;;;;;;;9.07;2.35;;;;;;;14.10;49.64;101455.78;6242069;28;20049;-70
2021/04/21 14:02:43;;;;;;;10.85;2.00;;;;;;;14.90;47.72;101468.75;6247915;28;20468;-70
2021/04/21 14:05:44;;;;;;;9.25;2.05;;;;;;;15.07;48.48;101465.06;6235199;28;20136;-74
2021/04/21 14:08:45;;;;;;;8.32;2.20;;;;;;;14.86;48.22;101461.94;6233688;28;20080;-69
2021/04/21 14:11:46;;;;;;;9.57;1.98;;;;;;;14.55;49.39;101476.13;6247790;28;20061;-69
2021/04/21 14:14:48;;;;;;;11.95;2.55;;;;;;;14.35;49.94;101471.09;6231230;28;20135;-70
2021/04/21 14:17:49;;;;;;;13.02;2.75;;;;;;;14.19;52.13;101474.63;6223209;28;20050;-70
2021/04/21 14:20:49;;;;;;;27.20;3.35;;;;;;;14.01;52.51;101472.16;6223351;28;20045;-70